createdAt,value
2022-11-27T00:00:16.073Z,6.97
2022-11-27T00:03:09.419Z,6.89
2022-11-27T00:05:58.270Z,6.85
2022-11-27T00:08:46.778Z,6.72
2022-11-27T00:11:34.643Z,6.68
2022-11-27T00:14:22.005Z,6.69
2022-11-27T00:17:09.757Z,6.65
2022-11-27T00:19:57.332Z,6.57
2022-11-27T00:22:44.681Z,6.58
2022-11-27T00:25:32.115Z,6.48
2022-11-27T00:28:20.458Z,6.46
2022-11-27T00:31:14.292Z,6.43
2022-11-27T00:34:06.343Z,6.35
2022-11-27T00:36:53.757Z,6.31
2022-11-27T00:39:41.389Z,6.24
2022-11-27T00:42:28.820Z,6.21
2022-11-27T00:45:16.287Z,6.16
2022-11-27T00:48:04.166Z,6.11
2022-11-27T00:50:51.758Z,5.96
2022-11-27T00:53:39.300Z,5.95
2022-11-27T00:56:29.484Z,5.94
2022-11-27T00:59:17.060Z,5.94
2022-11-27T01:02:04.575Z,5.87
2022-11-27T01:04:52.032Z,5.84
2022-11-27T01:07:39.419Z,5.84
2022-11-27T01:10:26.851Z,5.89
2022-11-27T01:13:14.144Z,5.83
2022-11-27T01:16:05.148Z,5.77
2022-11-27T01:18:55.419Z,5.81
2022-11-27T01:21:43.184Z,5.69
2022-11-27T01:24:30.538Z,5.76
2022-11-27T01:27:17.924Z,5.70
2022-11-27T01:30:06.149Z,5.78
2022-11-27T01:32:53.577Z,5.80
2022-11-27T01:35:40.985Z,5.79
2022-11-27T01:38:30.394Z,5.73
2022-11-27T01:41:27.584Z,5.75
2022-11-27T01:44:24.365Z,5.70
2022-11-27T01:47:15.468Z,5.67
2022-11-27T01:50:22.004Z,5.60
2022-11-27T01:53:19.564Z,5.54
2022-11-27T01:56:08.563Z,5.47
2022-11-27T01:58:58.403Z,5.47
2022-11-27T02:01:45.887Z,5.43
2022-11-27T02:04:33.354Z,5.35
2022-11-27T02:07:21.147Z,5.33
2022-11-27T02:10:09.601Z,5.24
2022-11-27T02:13:06.837Z,5.24
2022-11-27T02:16:02.968Z,5.17
2022-11-27T02:19:00.232Z,5.12
2022-11-27T02:21:59.908Z,5.09
2022-11-27T02:24:50.772Z,5.07
2022-11-27T02:28:12.269Z,5.06
2022-11-27T02:31:16.422Z,4.97
2022-11-27T02:34:46.917Z,4.98
2022-11-27T02:37:47.250Z,4.97
2022-11-27T02:40:43.233Z,4.93
2022-11-27T02:43:37.151Z,4.93
2022-11-27T02:46:26.280Z,4.89
2022-11-27T02:49:17.573Z,4.84
2022-11-27T02:52:06.672Z,4.83
2022-11-27T02:54:57.542Z,4.75
2022-11-27T02:57:46.405Z,4.74
2022-11-27T03:00:35.407Z,4.79
2022-11-27T03:03:28.047Z,4.75
2022-11-27T03:06:22.752Z,4.71
2022-11-27T03:09:18.977Z,4.72
2022-11-27T03:12:08.944Z,4.71
2022-11-27T03:14:56.452Z,4.72
2022-11-27T03:18:06.695Z,4.63
2022-11-27T03:21:09.672Z,4.63
2022-11-27T03:23:58.398Z,4.63
2022-11-27T03:26:45.950Z,4.61
2022-11-27T03:29:43.526Z,4.59
2022-11-27T03:32:31.688Z,4.51
2022-11-27T03:35:22.536Z,4.47
2022-11-27T03:38:09.969Z,4.46
2022-11-27T03:40:57.425Z,4.42
2022-11-27T03:44:11.900Z,4.38
2022-11-27T03:47:21.183Z,4.37
2022-11-27T03:50:27.039Z,4.37
2022-11-27T03:53:40.678Z,4.33
2022-11-27T03:56:43.373Z,4.31
2022-11-27T03:59:37.189Z,4.29
2022-11-27T04:02:40.169Z,4.28
2022-11-27T04:05:27.504Z,4.31
2022-11-27T04:08:14.954Z,4.31
2022-11-27T04:11:02.691Z,4.29
2022-11-27T04:13:52.121Z,4.32
2022-11-27T04:16:39.487Z,4.30
2022-11-27T04:19:26.974Z,4.31
2022-11-27T04:22:14.414Z,4.28
2022-11-27T04:25:01.757Z,4.27
2022-11-27T04:27:49.970Z,4.23
2022-11-27T04:30:37.432Z,4.24
2022-11-27T04:33:25.055Z,4.22
2022-11-27T04:36:12.591Z,4.14
2022-11-27T04:39:00.107Z,4.12
2022-11-27T04:41:47.480Z,4.11
2022-11-27T04:44:34.827Z,4.09
2022-11-27T04:47:22.176Z,4.01
2022-11-27T04:50:10.599Z,3.95
2022-11-27T04:52:58.052Z,3.91
2022-11-27T04:55:45.483Z,3.77
2022-11-27T04:58:32.907Z,3.67
2022-11-27T05:01:20.476Z,3.55
2022-11-27T05:04:08.194Z,3.44
2022-11-27T05:06:55.620Z,3.42
2022-11-27T05:09:43.088Z,3.39
2022-11-27T05:12:30.444Z,3.45
2022-11-27T05:15:17.839Z,3.49
2022-11-27T05:18:05.491Z,3.43
2022-11-27T05:21:06.618Z,3.39
2022-11-27T05:23:54.023Z,3.39
2022-11-27T05:26:42.736Z,3.37
2022-11-27T05:29:30.132Z,3.31
2022-11-27T05:32:17.774Z,3.28
2022-11-27T05:35:05.484Z,3.30
2022-11-27T05:37:52.817Z,3.27
2022-11-27T05:40:40.238Z,3.27
2022-11-27T05:43:27.532Z,3.25
2022-11-27T05:46:17.610Z,3.22
2022-11-27T05:49:06.532Z,3.14
2022-11-27T05:51:54.060Z,3.15
2022-11-27T05:54:41.634Z,3.16
2022-11-27T05:57:31.230Z,3.17
2022-11-27T06:00:18.825Z,3.20
2022-11-27T06:03:06.359Z,3.23
2022-11-27T06:05:54.087Z,3.20
2022-11-27T06:08:42.187Z,3.25
2022-11-27T06:11:29.523Z,3.21
2022-11-27T06:14:16.896Z,3.15
2022-11-27T06:17:04.874Z,3.14
2022-11-27T06:19:52.191Z,3.08
2022-11-27T06:22:39.537Z,3.06
2022-11-27T06:25:27.022Z,2.97
2022-11-27T06:28:14.448Z,2.90
2022-11-27T06:31:06.308Z,2.84
2022-11-27T06:33:55.114Z,2.83
2022-11-27T06:36:42.598Z,2.79
2022-11-27T06:39:29.947Z,2.76
2022-11-27T06:42:17.519Z,2.66
2022-11-27T06:45:05.489Z,2.61
2022-11-27T06:47:52.833Z,2.58
2022-11-27T06:50:40.437Z,2.56
2022-11-27T06:53:29.436Z,2.58
2022-11-27T06:56:19.795Z,2.56
2022-11-27T06:59:07.211Z,2.41
2022-11-27T07:01:54.658Z,2.49
2022-11-27T07:04:42.269Z,2.44
2022-11-27T07:07:29.928Z,2.36
2022-11-27T07:10:17.486Z,2.42
2022-11-27T07:13:05.023Z,2.38
2022-11-27T07:15:52.459Z,2.44
2022-11-27T07:18:46.479Z,2.47
2022-11-27T07:21:35.827Z,2.44
2022-11-27T07:24:23.359Z,2.35
2022-11-27T07:27:10.682Z,2.31
2022-11-27T07:29:58.346Z,2.27
2022-11-27T07:32:45.773Z,2.30
2022-11-27T07:35:33.169Z,2.22
2022-11-27T07:38:20.601Z,2.31
2022-11-27T07:41:08.962Z,2.30
2022-11-27T07:43:56.705Z,2.48
2022-11-27T07:46:44.373Z,2.52
2022-11-27T07:49:31.803Z,2.59
2022-11-27T07:52:19.206Z,2.61
2022-11-27T07:55:06.740Z,2.66
2022-11-27T07:57:54.094Z,2.59
2022-11-27T08:00:41.464Z,2.56
2022-11-27T08:03:28.931Z,2.42
2022-11-27T08:06:25.080Z,2.54
2022-11-27T08:09:12.627Z,2.65
2022-11-27T08:12:01.794Z,2.68
2022-11-27T08:14:49.148Z,2.65
2022-11-27T08:17:36.922Z,2.69
2022-11-27T08:20:24.542Z,2.60
2022-11-27T08:23:12.032Z,2.73
2022-11-27T08:25:59.526Z,2.78
2022-11-27T08:28:47.390Z,2.80
2022-11-27T08:31:35.228Z,2.69
2022-11-27T08:34:22.864Z,2.69
2022-11-27T08:37:10.309Z,2.81
2022-11-27T08:39:57.648Z,2.86
2022-11-27T08:42:45.307Z,2.86
2022-11-27T08:45:33.113Z,3.04
2022-11-27T08:48:21.825Z,3.15
2022-11-27T08:51:14.559Z,3.13
2022-11-27T08:54:03.404Z,3.20
2022-11-27T08:56:52.833Z,3.19
2022-11-27T08:59:40.165Z,3.33
2022-11-27T09:02:27.468Z,3.47
2022-11-27T09:05:15.222Z,3.56
2022-11-27T09:08:05.706Z,3.67
2022-11-27T09:10:53.250Z,3.76
2022-11-27T09:13:41.237Z,3.83
2022-11-27T09:16:30.205Z,3.86
2022-11-27T09:19:18.253Z,3.90
2022-11-27T09:22:05.556Z,3.99
2022-11-27T09:24:53.005Z,3.96
2022-11-27T09:27:40.441Z,3.91
2022-11-27T09:30:27.736Z,4.03
2022-11-27T09:33:16.132Z,3.99
2022-11-27T09:36:19.312Z,4.15
2022-11-27T09:39:06.712Z,4.15
2022-11-27T09:42:00.247Z,4.12
2022-11-27T09:44:57.393Z,4.14
2022-11-27T09:47:53.164Z,3.94
2022-11-27T09:50:50.592Z,3.94
2022-11-27T09:53:50.556Z,4.03
2022-11-27T09:56:37.959Z,3.87
2022-11-27T09:59:39.720Z,3.87
2022-11-27T10:02:33.040Z,3.89
2022-11-27T10:05:32.125Z,3.97
2022-11-27T10:08:47.983Z,4.12
2022-11-27T10:11:38.787Z,4.24
2022-11-27T10:14:44.766Z,4.24
2022-11-27T10:17:55.648Z,4.25
2022-11-27T10:20:48.939Z,4.27
2022-11-27T10:23:47.112Z,4.31
2022-11-27T10:26:41.585Z,4.35
2022-11-27T10:29:52.462Z,4.41
2022-11-27T10:32:55.098Z,4.42
2022-11-27T10:35:46.461Z,4.45
2022-11-27T10:38:39.173Z,4.55
2022-11-27T10:41:59.526Z,4.59
2022-11-27T10:45:08.354Z,4.74
2022-11-27T10:47:55.943Z,4.67
2022-11-27T10:50:45.234Z,4.82
2022-11-27T10:53:36.255Z,4.77
2022-11-27T10:56:45.473Z,4.80
2022-11-27T10:59:42.043Z,4.77
2022-11-27T11:02:32.596Z,4.86
2022-11-27T11:05:40.966Z,4.92
2022-11-27T11:08:33.436Z,4.85
2022-11-27T11:11:27.692Z,4.64
2022-11-27T11:14:23.034Z,4.69
2022-11-27T11:17:18.426Z,4.65
2022-11-27T11:20:36.990Z,4.71
2022-11-27T11:23:30.834Z,4.75
2022-11-27T11:26:29.993Z,4.91
2022-11-27T11:29:43.087Z,4.93
2022-11-27T11:32:37.494Z,5.06
2022-11-27T11:35:35.745Z,5.02
2022-11-27T11:38:31.291Z,5.09
2022-11-27T11:41:20.399Z,4.97
2022-11-27T11:44:24.001Z,4.94
2022-11-27T11:47:18.896Z,5.04
2022-11-27T11:50:13.403Z,4.98
2022-11-27T11:53:18.953Z,5.07
2022-11-27T11:56:35.590Z,5.16
2022-11-27T11:59:45.416Z,5.18
2022-11-27T12:03:21.236Z,5.32
2022-11-27T12:06:29.099Z,5.11
2022-11-27T12:09:46.545Z,5.20
2022-11-27T12:12:54.864Z,5.28
2022-11-27T12:15:51.558Z,5.22
2022-11-27T12:19:04.366Z,5.16
2022-11-27T12:22:05.058Z,5.22
2022-11-27T12:25:23.720Z,5.08
2022-11-27T12:28:29.295Z,5.15
2022-11-27T12:31:41.584Z,4.94
2022-11-27T12:34:46.971Z,4.95
2022-11-27T12:38:12.846Z,4.98
2022-11-27T12:41:13.950Z,4.94
2022-11-27T12:44:01.833Z,4.84
2022-11-27T12:46:56.938Z,4.96
2022-11-27T12:49:58.610Z,4.97
2022-11-27T12:52:59.217Z,4.99
2022-11-27T12:56:01.493Z,4.98
2022-11-27T12:58:55.103Z,4.91
2022-11-27T13:02:18.182Z,5.01
2022-11-27T13:05:14.670Z,4.99
2022-11-27T13:08:11.267Z,5.02
2022-11-27T13:11:05.233Z,5.08
2022-11-27T13:14:07.333Z,5.04
2022-11-27T13:16:57.993Z,5.03
2022-11-27T13:19:50.355Z,4.94
2022-11-27T13:22:38.680Z,4.92
2022-11-27T13:25:28.012Z,4.99
2022-11-27T13:28:37.664Z,4.97
2022-11-27T13:31:29.451Z,4.93
2022-11-27T13:34:24.280Z,5.01
2022-11-27T13:37:30.838Z,4.99
2022-11-27T13:40:31.265Z,4.95
2022-11-27T13:43:29.372Z,4.84
2022-11-27T13:46:25.636Z,4.70
2022-11-27T13:49:26.422Z,4.74
2022-11-27T13:52:19.774Z,4.74
2022-11-27T13:55:10.020Z,4.61
2022-11-27T13:57:59.965Z,4.65
2022-11-27T14:00:47.618Z,4.70
2022-11-27T14:03:36.990Z,4.70
2022-11-27T14:06:29.322Z,4.68
2022-11-27T14:09:16.646Z,4.67
2022-11-27T14:12:16.502Z,4.65
2022-11-27T14:15:15.725Z,4.71
2022-11-27T14:18:21.288Z,4.64
2022-11-27T14:21:09.687Z,4.65
2022-11-27T14:23:57.455Z,4.74
2022-11-27T14:26:45.803Z,4.78
2022-11-27T14:29:33.536Z,4.69
2022-11-27T14:32:21.644Z,4.65
2022-11-27T14:35:24.215Z,4.72
2022-11-27T14:38:16.068Z,4.74
2022-11-27T14:41:11.859Z,4.72
2022-11-27T14:44:05.607Z,4.63
2022-11-27T14:46:54.315Z,4.66
2022-11-27T14:49:42.366Z,4.65
2022-11-27T14:52:36.266Z,4.79
2022-11-27T14:55:24.403Z,4.81
2022-11-27T14:58:18.938Z,4.80
2022-11-27T15:01:09.567Z,4.81
2022-11-27T15:04:06.095Z,4.79
2022-11-27T15:06:55.637Z,4.84
2022-11-27T15:09:46.718Z,4.87
2022-11-27T15:12:38.384Z,4.91
2022-11-27T15:15:28.427Z,4.89
2022-11-27T15:18:23.953Z,4.90
2022-11-27T15:21:16.497Z,4.91
2022-11-27T15:24:04.207Z,4.89
2022-11-27T15:26:54.455Z,4.91
2022-11-27T15:29:55.231Z,4.89
2022-11-27T15:32:53.713Z,4.93
2022-11-27T15:35:41.574Z,4.91
2022-11-27T15:38:28.908Z,4.93
2022-11-27T15:41:32.980Z,4.86
2022-11-27T15:44:20.948Z,4.83
2022-11-27T15:47:28.334Z,4.88
2022-11-27T15:50:24.773Z,4.85
2022-11-27T15:53:12.249Z,4.88
2022-11-27T15:56:14.345Z,4.90
2022-11-27T15:59:01.661Z,4.93
2022-11-27T16:01:49.782Z,4.93
2022-11-27T16:04:39.662Z,4.93
2022-11-27T16:07:27.552Z,4.97
2022-11-27T16:10:15.437Z,4.97
2022-11-27T16:13:03.083Z,5.02
2022-11-27T16:15:50.557Z,5.02
2022-11-27T16:18:38.032Z,5.03
2022-11-27T16:21:29.694Z,5.07
2022-11-27T16:24:17.652Z,5.13
2022-11-27T16:27:05.218Z,5.19
2022-11-27T16:29:52.564Z,5.23
2022-11-27T16:32:42.855Z,5.24
2022-11-27T16:35:30.513Z,5.19
2022-11-27T16:38:20.588Z,5.20
2022-11-27T16:41:11.238Z,5.23
2022-11-27T16:44:00.138Z,5.23
2022-11-27T16:46:47.585Z,5.28
2022-11-27T16:49:35.022Z,5.26
2022-11-27T16:52:22.390Z,5.28
2022-11-27T16:55:10.834Z,5.28
2022-11-27T16:57:58.358Z,5.32
2022-11-27T17:00:46.318Z,5.30
2022-11-27T17:03:36.988Z,5.33
2022-11-27T17:06:29.958Z,5.28
2022-11-27T17:09:17.565Z,5.31
2022-11-27T17:12:05.362Z,5.30
2022-11-27T17:14:52.981Z,5.33
2022-11-27T17:17:42.923Z,5.40
2022-11-27T17:20:30.629Z,5.41
2022-11-27T17:23:18.070Z,5.42
2022-11-27T17:26:14.202Z,5.43
2022-11-27T17:29:03.451Z,5.33
2022-11-27T17:31:51.295Z,5.38
2022-11-27T17:34:38.744Z,5.39
2022-11-27T17:37:26.198Z,5.46
2022-11-27T17:40:15.632Z,5.42
2022-11-27T17:43:03.291Z,5.51
2022-11-27T17:45:51.017Z,5.48
2022-11-27T17:48:38.944Z,5.46
2022-11-27T17:51:27.892Z,5.45
2022-11-27T17:54:15.341Z,5.52
2022-11-27T17:57:02.704Z,5.57
2022-11-27T17:59:50.186Z,5.48
2022-11-27T18:02:37.627Z,5.54
2022-11-27T18:05:25.054Z,5.50
2022-11-27T18:08:12.412Z,5.53
2022-11-27T18:11:09.494Z,5.52
2022-11-27T18:13:57.052Z,5.54
2022-11-27T18:16:44.542Z,5.58
2022-11-27T18:19:32.077Z,5.54
2022-11-27T18:22:19.625Z,5.61
2022-11-27T18:25:07.615Z,5.60
2022-11-27T18:27:55.323Z,5.60
2022-11-27T18:30:42.795Z,5.63
2022-11-27T18:33:30.213Z,5.59
2022-11-27T18:36:19.768Z,5.62
2022-11-27T18:39:07.613Z,5.62
2022-11-27T18:41:55.566Z,5.58
2022-11-27T18:44:45.162Z,5.58
2022-11-27T18:47:33.526Z,5.55
2022-11-27T18:50:24.390Z,5.54
2022-11-27T18:53:14.266Z,5.53
2022-11-27T18:56:11.248Z,5.59
2022-11-27T18:59:04.068Z,5.56
2022-11-27T19:01:52.118Z,5.59
2022-11-27T19:04:39.929Z,5.61
2022-11-27T19:07:28.143Z,5.53
2022-11-27T19:10:16.501Z,5.51
2022-11-27T19:13:04.121Z,5.57
2022-11-27T19:15:51.811Z,5.54
2022-11-27T19:18:39.462Z,5.57
2022-11-27T19:21:28.786Z,5.60
2022-11-27T19:24:16.316Z,5.53
2022-11-27T19:27:03.948Z,5.57
2022-11-27T19:29:51.518Z,5.62
2022-11-27T19:32:39.549Z,5.56
2022-11-27T19:35:27.066Z,5.55
2022-11-27T19:38:15.443Z,5.56
2022-11-27T19:41:03.467Z,5.61
2022-11-27T19:43:51.246Z,5.61
2022-11-27T19:46:39.379Z,5.62
2022-11-27T19:49:26.832Z,5.65
2022-11-27T19:52:14.328Z,5.62
2022-11-27T19:55:01.795Z,5.63
2022-11-27T19:57:49.252Z,5.61
2022-11-27T20:00:36.700Z,5.59
2022-11-27T20:03:24.127Z,5.58
2022-11-27T20:06:14.095Z,5.61
2022-11-27T20:09:04.465Z,5.63
2022-11-27T20:11:51.881Z,5.65
2022-11-27T20:14:39.641Z,5.62
2022-11-27T20:17:27.247Z,5.64
2022-11-27T20:20:16.611Z,5.69
2022-11-27T20:23:04.267Z,5.62
2022-11-27T20:25:52.726Z,5.57
2022-11-27T20:28:41.327Z,5.63
2022-11-27T20:31:32.132Z,5.64
2022-11-27T20:34:22.380Z,5.69
2022-11-27T20:37:09.754Z,5.69
2022-11-27T20:39:57.090Z,5.71
2022-11-27T20:42:44.509Z,5.72
2022-11-27T20:45:32.172Z,5.72
2022-11-27T20:48:19.673Z,5.71
2022-11-27T20:51:16.043Z,5.74
2022-11-27T20:54:03.632Z,5.79
2022-11-27T20:56:51.343Z,5.79
2022-11-27T20:59:42.168Z,5.79
2022-11-27T21:02:29.800Z,5.80
2022-11-27T21:05:17.270Z,5.76
2022-11-27T21:08:04.841Z,5.76
2022-11-27T21:10:52.396Z,5.79
2022-11-27T21:13:40.357Z,5.81
2022-11-27T21:16:30.999Z,5.81
2022-11-27T21:19:28.071Z,5.82
2022-11-27T21:22:15.450Z,5.85
2022-11-27T21:25:03.243Z,5.88
2022-11-27T21:27:51.850Z,5.83
2022-11-27T21:30:39.586Z,5.86
2022-11-27T21:33:27.003Z,5.86
2022-11-27T21:36:15.198Z,5.86
2022-11-27T21:39:06.013Z,5.89
2022-11-27T21:41:55.426Z,5.93
2022-11-27T21:44:44.985Z,5.86
2022-11-27T21:47:32.509Z,5.90
2022-11-27T21:50:19.859Z,5.94
2022-11-27T21:53:07.448Z,5.87
2022-11-27T21:55:54.794Z,5.90
2022-11-27T21:58:42.953Z,5.88
2022-11-27T22:01:30.516Z,5.87
2022-11-27T22:04:18.299Z,5.82
2022-11-27T22:07:07.877Z,5.85
2022-11-27T22:09:58.375Z,5.90
2022-11-27T22:12:45.697Z,5.94
2022-11-27T22:15:36.169Z,5.94
2022-11-27T22:18:23.606Z,5.96
2022-11-27T22:21:12.742Z,5.91
2022-11-27T22:24:01.481Z,5.88
2022-11-27T22:26:49.081Z,5.90
2022-11-27T22:29:36.406Z,5.88
2022-11-27T22:32:23.854Z,5.87
2022-11-27T22:35:11.427Z,5.92
2022-11-27T22:37:58.768Z,5.90
2022-11-27T22:40:46.131Z,5.91
2022-11-27T22:43:36.011Z,5.89
2022-11-27T22:46:37.045Z,5.87
2022-11-27T22:49:24.575Z,5.88
2022-11-27T22:52:11.964Z,5.91
2022-11-27T22:55:00.230Z,5.93
2022-11-27T22:57:47.634Z,5.91
2022-11-27T23:00:34.941Z,5.86
2022-11-27T23:03:22.395Z,5.83
2022-11-27T23:06:12.278Z,5.91
2022-11-27T23:08:59.801Z,5.87
2022-11-27T23:11:48.024Z,5.92
2022-11-27T23:14:35.847Z,5.94
2022-11-27T23:17:23.513Z,5.91
2022-11-27T23:20:11.461Z,6.01
2022-11-27T23:22:58.741Z,5.98
2022-11-27T23:25:46.115Z,5.98
2022-11-27T23:28:34.244Z,5.99
2022-11-27T23:31:32.014Z,5.96
2022-11-27T23:34:19.637Z,5.87
2022-11-27T23:37:07.029Z,5.94
2022-11-27T23:39:54.481Z,5.91
2022-11-27T23:42:42.804Z,5.91
2022-11-27T23:45:30.168Z,5.84
2022-11-27T23:48:17.617Z,5.91
2022-11-27T23:51:12.556Z,5.90
2022-11-27T23:54:01.048Z,5.91
2022-11-27T23:56:51.294Z,5.90
2022-11-27T23:59:38.737Z,5.87
